sensor_id;sensor_type;location;lat;lon;timestamp;P1;durP1;ratioP1;P2;durP2;ratioP2
54545;SDS011;40444;45.184;9.850;2022-08-19T00:01:59;16.85;;;15.13;;
54545;SDS011;40444;45.184;9.850;2022-08-19T00:04:29;16.38;;;14.73;;
54545;SDS011;40444;45.184;9.850;2022-08-19T00:07:00;16.67;;;14.88;;
54545;SDS011;40444;45.184;9.850;2022-08-19T00:09:30;15.80;;;13.80;;
54545;SDS011;40444;45.184;9.850;2022-08-19T00:11:59;17.67;;;14.57;;
54545;SDS011;40444;45.184;9.850;2022-08-19T00:14:29;16.25;;;14.60;;
54545;SDS011;40444;45.184;9.850;2022-08-19T00:16:59;16.50;;;14.50;;
54545;SDS011;40444;45.184;9.850;2022-08-19T00:19:30;15.75;;;13.98;;
54545;SDS011;40444;45.184;9.850;2022-08-19T00:21:59;18.55;;;14.30;;
54545;SDS011;40444;45.184;9.850;2022-08-19T00:24:27;16.88;;;13.93;;
54545;SDS011;40444;45.184;9.850;2022-08-19T00:26:56;16.55;;;13.73;;
54545;SDS011;40444;45.184;9.850;2022-08-19T00:29:45;13.55;;;12.15;;
54545;SDS011;40444;45.184;9.850;2022-08-19T00:32:19;12.82;;;11.60;;
54545;SDS011;40444;45.184;9.850;2022-08-19T00:34:48;13.23;;;11.68;;
54545;SDS011;40444;45.184;9.850;2022-08-19T00:37:16;15.68;;;12.02;;
54545;SDS011;40444;45.184;9.850;2022-08-19T00:39:46;20.05;;;12.02;;
54545;SDS011;40444;45.184;9.850;2022-08-19T00:42:15;13.48;;;10.82;;
54545;SDS011;40444;45.184;9.850;2022-08-19T00:44:44;12.60;;;11.30;;
54545;SDS011;40444;45.184;9.850;2022-08-19T00:47:13;13.43;;;12.02;;
54545;SDS011;40444;45.184;9.850;2022-08-19T00:49:49;16.33;;;11.30;;
54545;SDS011;40444;45.184;9.850;2022-08-19T00:52:25;12.95;;;11.48;;
54545;SDS011;40444;45.184;9.850;2022-08-19T00:54:59;17.50;;;11.85;;
54545;SDS011;40444;45.184;9.850;2022-08-19T00:57:34;16.17;;;11.38;;
54545;SDS011;40444;45.184;9.850;2022-08-19T01:00:07;15.95;;;10.90;;
54545;SDS011;40444;45.184;9.850;2022-08-19T01:02:40;12.77;;;11.25;;
54545;SDS011;40444;45.184;9.850;2022-08-19T01:05:10;13.52;;;11.70;;
54545;SDS011;40444;45.184;9.850;2022-08-19T01:07:43;12.85;;;11.43;;
54545;SDS011;40444;45.184;9.850;2022-08-19T01:10:13;14.55;;;11.65;;
54545;SDS011;40444;45.184;9.850;2022-08-19T01:12:46;16.88;;;12.75;;
54545;SDS011;40444;45.184;9.850;2022-08-19T01:15:17;14.13;;;12.52;;
54545;SDS011;40444;45.184;9.850;2022-08-19T01:17:50;14.60;;;12.13;;
54545;SDS011;40444;45.184;9.850;2022-08-19T01:20:20;13.32;;;11.82;;
54545;SDS011;40444;45.184;9.850;2022-08-19T01:22:54;16.88;;;12.45;;
54545;SDS011;40444;45.184;9.850;2022-08-19T01:25:38;15.02;;;12.63;;
54545;SDS011;40444;45.184;9.850;2022-08-19T01:28:22;13.82;;;12.13;;
54545;SDS011;40444;45.184;9.850;2022-08-19T01:31:07;15.20;;;11.35;;
54545;SDS011;40444;45.184;9.850;2022-08-19T01:33:54;13.15;;;11.75;;
54545;SDS011;40444;45.184;9.850;2022-08-19T01:36:32;14.57;;;11.90;;
54545;SDS011;40444;45.184;9.850;2022-08-19T01:39:11;12.82;;;11.30;;
54545;SDS011;40444;45.184;9.850;2022-08-19T01:41:46;13.37;;;11.97;;
54545;SDS011;40444;45.184;9.850;2022-08-19T01:44:15;16.65;;;11.85;;
54545;SDS011;40444;45.184;9.850;2022-08-19T01:46:48;13.05;;;11.65;;
54545;SDS011;40444;45.184;9.850;2022-08-19T01:49:18;13.52;;;12.02;;
54545;SDS011;40444;45.184;9.850;2022-08-19T01:51:49;13.70;;;11.38;;
54545;SDS011;40444;45.184;9.850;2022-08-19T01:54:18;14.00;;;11.88;;
54545;SDS011;40444;45.184;9.850;2022-08-19T01:56:56;14.40;;;12.37;;
54545;SDS011;40444;45.184;9.850;2022-08-19T01:59:29;15.30;;;11.80;;
54545;SDS011;40444;45.184;9.850;2022-08-19T02:01:59;15.43;;;12.85;;
54545;SDS011;40444;45.184;9.850;2022-08-19T02:04:27;15.05;;;12.93;;
54545;SDS011;40444;45.184;9.850;2022-08-19T02:06:57;12.50;;;11.18;;
54545;SDS011;40444;45.184;9.850;2022-08-19T02:09:26;14.80;;;11.82;;
54545;SDS011;40444;45.184;9.850;2022-08-19T02:11:54;16.20;;;12.02;;
54545;SDS011;40444;45.184;9.850;2022-08-19T02:14:22;13.70;;;12.20;;
54545;SDS011;40444;45.184;9.850;2022-08-19T02:16:51;14.55;;;12.90;;
54545;SDS011;40444;45.184;9.850;2022-08-19T02:19:19;13.30;;;11.63;;
54545;SDS011;40444;45.184;9.850;2022-08-19T02:21:48;12.77;;;11.35;;
54545;SDS011;40444;45.184;9.850;2022-08-19T02:24:16;13.45;;;10.88;;
54545;SDS011;40444;45.184;9.850;2022-08-19T02:26:45;18.42;;;11.88;;
54545;SDS011;40444;45.184;9.850;2022-08-19T02:29:13;18.38;;;11.88;;
54545;SDS011;40444;45.184;9.850;2022-08-19T02:31:42;15.60;;;12.13;;
54545;SDS011;40444;45.184;9.850;2022-08-19T02:34:10;20.27;;;12.27;;
54545;SDS011;40444;45.184;9.850;2022-08-19T02:36:39;25.15;;;13.43;;
54545;SDS011;40444;45.184;9.850;2022-08-19T02:39:09;13.77;;;8.95;;
54545;SDS011;40444;45.184;9.850;2022-08-19T02:41:38;13.75;;;8.68;;
54545;SDS011;40444;45.184;9.850;2022-08-19T02:44:07;15.02;;;9.50;;
54545;SDS011;40444;45.184;9.850;2022-08-19T02:46:55;13.43;;;9.18;;
54545;SDS011;40444;45.184;9.850;2022-08-19T02:49:24;14.48;;;10.68;;
54545;SDS011;40444;45.184;9.850;2022-08-19T02:51:52;14.50;;;11.05;;
54545;SDS011;40444;45.184;9.850;2022-08-19T02:54:22;14.10;;;10.90;;
54545;SDS011;40444;45.184;9.850;2022-08-19T02:56:51;15.63;;;9.88;;
54545;SDS011;40444;45.184;9.850;2022-08-19T02:59:19;12.13;;;8.98;;
54545;SDS011;40444;45.184;9.850;2022-08-19T03:01:49;9.90;;;8.90;;
54545;SDS011;40444;45.184;9.850;2022-08-19T03:04:18;11.57;;;8.73;;
54545;SDS011;40444;45.184;9.850;2022-08-19T03:06:47;9.73;;;8.35;;
54545;SDS011;40444;45.184;9.850;2022-08-19T03:09:17;12.13;;;8.90;;
54545;SDS011;40444;45.184;9.850;2022-08-19T03:11:47;11.68;;;8.85;;
54545;SDS011;40444;45.184;9.850;2022-08-19T03:14:19;13.85;;;9.75;;
54545;SDS011;40444;45.184;9.850;2022-08-19T03:16:49;15.35;;;10.13;;
54545;SDS011;40444;45.184;9.850;2022-08-19T03:19:19;11.88;;;9.88;;
54545;SDS011;40444;45.184;9.850;2022-08-19T03:21:50;11.95;;;9.73;;
54545;SDS011;40444;45.184;9.850;2022-08-19T03:24:19;13.50;;;9.05;;
54545;SDS011;40444;45.184;9.850;2022-08-19T03:26:53;14.75;;;9.27;;
54545;SDS011;40444;45.184;9.850;2022-08-19T03:29:27;13.30;;;10.50;;
54545;SDS011;40444;45.184;9.850;2022-08-19T03:31:59;13.85;;;9.85;;
54545;SDS011;40444;45.184;9.850;2022-08-19T03:34:31;13.40;;;10.43;;
54545;SDS011;40444;45.184;9.850;2022-08-19T03:37:09;13.00;;;10.27;;
54545;SDS011;40444;45.184;9.850;2022-08-19T03:39:42;11.10;;;8.98;;
54545;SDS011;40444;45.184;9.850;2022-08-19T03:42:11;9.57;;;8.20;;
54545;SDS011;40444;45.184;9.850;2022-08-19T03:45:00;8.52;;;7.60;;
54545;SDS011;40444;45.184;9.850;2022-08-19T03:47:28;9.55;;;8.02;;
54545;SDS011;40444;45.184;9.850;2022-08-19T03:49:58;7.97;;;7.18;;
54545;SDS011;40444;45.184;9.850;2022-08-19T03:52:26;8.23;;;7.10;;
54545;SDS011;40444;45.184;9.850;2022-08-19T03:54:55;10.77;;;8.00;;
54545;SDS011;40444;45.184;9.850;2022-08-19T03:57:23;8.52;;;7.47;;
54545;SDS011;40444;45.184;9.850;2022-08-19T03:59:58;9.07;;;7.38;;
54545;SDS011;40444;45.184;9.850;2022-08-19T04:02:40;8.98;;;7.78;;
54545;SDS011;40444;45.184;9.850;2022-08-19T04:05:26;10.05;;;8.02;;
54545;SDS011;40444;45.184;9.850;2022-08-19T04:07:56;14.05;;;10.43;;
54545;SDS011;40444;45.184;9.850;2022-08-19T04:10:27;10.95;;;9.23;;
54545;SDS011;40444;45.184;9.850;2022-08-19T04:12:56;10.88;;;8.50;;
54545;SDS011;40444;45.184;9.850;2022-08-19T04:15:25;9.90;;;8.75;;
54545;SDS011;40444;45.184;9.850;2022-08-19T04:17:53;10.18;;;8.32;;
54545;SDS011;40444;45.184;9.850;2022-08-19T04:20:22;9.65;;;8.10;;
54545;SDS011;40444;45.184;9.850;2022-08-19T04:22:50;11.90;;;8.07;;
54545;SDS011;40444;45.184;9.850;2022-08-19T04:25:19;13.23;;;8.43;;
54545;SDS011;40444;45.184;9.850;2022-08-19T04:27:47;9.20;;;7.53;;
54545;SDS011;40444;45.184;9.850;2022-08-19T04:30:16;13.07;;;8.63;;
54545;SDS011;40444;45.184;9.850;2022-08-19T04:32:45;9.48;;;7.85;;
54545;SDS011;40444;45.184;9.850;2022-08-19T04:35:13;9.13;;;7.72;;
54545;SDS011;40444;45.184;9.850;2022-08-19T04:37:44;10.05;;;8.95;;
54545;SDS011;40444;45.184;9.850;2022-08-19T04:40:13;14.52;;;9.90;;
54545;SDS011;40444;45.184;9.850;2022-08-19T04:42:59;11.23;;;10.07;;
54545;SDS011;40444;45.184;9.850;2022-08-19T04:45:29;12.93;;;11.00;;
54545;SDS011;40444;45.184;9.850;2022-08-19T04:48:10;14.00;;;10.70;;
54545;SDS011;40444;45.184;9.850;2022-08-19T04:50:54;12.27;;;9.98;;
54545;SDS011;40444;45.184;9.850;2022-08-19T04:53:27;13.27;;;10.68;;
54545;SDS011;40444;45.184;9.850;2022-08-19T04:56:05;13.70;;;9.80;;
54545;SDS011;40444;45.184;9.850;2022-08-19T04:58:38;13.90;;;10.77;;
54545;SDS011;40444;45.184;9.850;2022-08-19T05:01:14;9.52;;;7.82;;
54545;SDS011;40444;45.184;9.850;2022-08-19T05:03:46;9.82;;;8.13;;
54545;SDS011;40444;45.184;9.850;2022-08-19T05:06:16;8.30;;;6.72;;
54545;SDS011;40444;45.184;9.850;2022-08-19T05:08:46;8.90;;;6.30;;
54545;SDS011;40444;45.184;9.850;2022-08-19T05:11:16;4.38;;;2.88;;
54545;SDS011;40444;45.184;9.850;2022-08-19T05:13:52;4.15;;;2.40;;
54545;SDS011;40444;45.184;9.850;2022-08-19T19:29:43;3.75;;;3.33;;
54545;SDS011;40444;45.184;9.850;2022-08-19T19:32:22;3.95;;;3.55;;
54545;SDS011;40444;45.184;9.850;2022-08-19T19:34:54;4.07;;;3.60;;
54545;SDS011;40444;45.184;9.850;2022-08-19T19:37:22;4.15;;;3.75;;
54545;SDS011;40444;45.184;9.850;2022-08-19T19:39:51;4.63;;;3.25;;
54545;SDS011;40444;45.184;9.850;2022-08-19T19:42:20;3.63;;;3.10;;
54545;SDS011;40444;45.184;9.850;2022-08-19T19:44:51;3.78;;;3.47;;
54545;SDS011;40444;45.184;9.850;2022-08-19T19:47:22;3.90;;;3.50;;
54545;SDS011;40444;45.184;9.850;2022-08-19T19:49:52;3.40;;;3.10;;
54545;SDS011;40444;45.184;9.850;2022-08-19T19:52:41;3.88;;;3.25;;
54545;SDS011;40444;45.184;9.850;2022-08-19T19:55:13;3.58;;;3.28;;
54545;SDS011;40444;45.184;9.850;2022-08-19T19:57:48;4.38;;;3.83;;
54545;SDS011;40444;45.184;9.850;2022-08-19T20:00:16;3.95;;;3.30;;
54545;SDS011;40444;45.184;9.850;2022-08-19T20:02:46;3.92;;;3.38;;
54545;SDS011;40444;45.184;9.850;2022-08-19T20:05:17;4.53;;;3.60;;
54545;SDS011;40444;45.184;9.850;2022-08-19T20:07:50;3.40;;;3.10;;
54545;SDS011;40444;45.184;9.850;2022-08-19T20:10:39;3.85;;;3.50;;
54545;SDS011;40444;45.184;9.850;2022-08-19T20:13:09;5.22;;;3.65;;
54545;SDS011;40444;45.184;9.850;2022-08-19T20:15:38;5.70;;;3.92;;
54545;SDS011;40444;45.184;9.850;2022-08-19T20:18:09;4.93;;;3.75;;
54545;SDS011;40444;45.184;9.850;2022-08-19T20:20:40;6.97;;;3.90;;
54545;SDS011;40444;45.184;9.850;2022-08-19T20:23:09;5.63;;;4.22;;
54545;SDS011;40444;45.184;9.850;2022-08-19T20:25:38;5.22;;;4.68;;
54545;SDS011;40444;45.184;9.850;2022-08-19T20:28:07;6.30;;;4.82;;
54545;SDS011;40444;45.184;9.850;2022-08-19T20:30:36;6.40;;;5.07;;
54545;SDS011;40444;45.184;9.850;2022-08-19T20:33:11;7.07;;;5.82;;
54545;SDS011;40444;45.184;9.850;2022-08-19T20:35:41;5.82;;;5.22;;
54545;SDS011;40444;45.184;9.850;2022-08-19T20:38:10;6.13;;;5.53;;
54545;SDS011;40444;45.184;9.850;2022-08-19T20:40:40;5.40;;;5.00;;
54545;SDS011;40444;45.184;9.850;2022-08-19T20:43:09;5.45;;;4.95;;
54545;SDS011;40444;45.184;9.850;2022-08-19T20:45:40;5.40;;;4.90;;
54545;SDS011;40444;45.184;9.850;2022-08-19T20:48:08;5.93;;;4.82;;
54545;SDS011;40444;45.184;9.850;2022-08-19T20:50:39;4.82;;;4.43;;
54545;SDS011;40444;45.184;9.850;2022-08-19T20:53:09;6.45;;;5.00;;
54545;SDS011;40444;45.184;9.850;2022-08-19T20:55:42;7.13;;;4.90;;
54545;SDS011;40444;45.184;9.850;2022-08-19T20:58:12;4.82;;;4.43;;
54545;SDS011;40444;45.184;9.850;2022-08-19T21:00:41;5.68;;;5.18;;
54545;SDS011;40444;45.184;9.850;2022-08-19T21:03:15;6.75;;;5.10;;
54545;SDS011;40444;45.184;9.850;2022-08-19T21:05:46;5.32;;;4.82;;
54545;SDS011;40444;45.184;9.850;2022-08-19T21:08:15;5.35;;;4.85;;
54545;SDS011;40444;45.184;9.850;2022-08-19T21:10:46;5.78;;;5.28;;
54545;SDS011;40444;45.184;9.850;2022-08-19T21:13:16;5.93;;;5.18;;
54545;SDS011;40444;45.184;9.850;2022-08-19T21:15:47;6.22;;;5.63;;
54545;SDS011;40444;45.184;9.850;2022-08-19T21:18:17;5.88;;;4.93;;
54545;SDS011;40444;45.184;9.850;2022-08-19T21:20:48;6.72;;;5.13;;
54545;SDS011;40444;45.184;9.850;2022-08-19T21:23:21;5.80;;;5.22;;
54545;SDS011;40444;45.184;9.850;2022-08-19T21:25:53;5.50;;;5.00;;
54545;SDS011;40444;45.184;9.850;2022-08-19T21:28:23;6.15;;;5.50;;
54545;SDS011;40444;45.184;9.850;2022-08-19T21:31:04;5.70;;;5.20;;
54545;SDS011;40444;45.184;9.850;2022-08-19T21:33:33;5.50;;;5.00;;
54545;SDS011;40444;45.184;9.850;2022-08-19T21:36:02;5.22;;;4.80;;
54545;SDS011;40444;45.184;9.850;2022-08-19T21:38:32;5.03;;;4.47;;
54545;SDS011;40444;45.184;9.850;2022-08-19T21:41:01;5.85;;;5.35;;
54545;SDS011;40444;45.184;9.850;2022-08-19T21:43:35;4.90;;;4.47;;
54545;SDS011;40444;45.184;9.850;2022-08-19T21:46:07;4.85;;;4.32;;
54545;SDS011;40444;45.184;9.850;2022-08-19T21:48:35;5.75;;;5.15;;
54545;SDS011;40444;45.184;9.850;2022-08-19T21:51:04;5.55;;;5.05;;
54545;SDS011;40444;45.184;9.850;2022-08-19T21:53:33;5.55;;;5.05;;
54545;SDS011;40444;45.184;9.850;2022-08-19T21:56:02;5.45;;;4.95;;
54545;SDS011;40444;45.184;9.850;2022-08-19T21:58:33;5.90;;;5.40;;
54545;SDS011;40444;45.184;9.850;2022-08-19T22:01:06;5.57;;;5.03;;
54545;SDS011;40444;45.184;9.850;2022-08-19T22:03:35;5.93;;;5.32;;
54545;SDS011;40444;45.184;9.850;2022-08-19T22:06:05;5.75;;;5.15;;
54545;SDS011;40444;45.184;9.850;2022-08-19T22:08:37;5.68;;;5.18;;
54545;SDS011;40444;45.184;9.850;2022-08-19T22:11:07;6.32;;;5.13;;
54545;SDS011;40444;45.184;9.850;2022-08-19T22:13:39;5.45;;;4.95;;
54545;SDS011;40444;45.184;9.850;2022-08-19T22:16:08;5.35;;;4.85;;
54545;SDS011;40444;45.184;9.850;2022-08-19T22:18:37;5.90;;;5.07;;
54545;SDS011;40444;45.184;9.850;2022-08-19T22:21:06;6.47;;;5.28;;
54545;SDS011;40444;45.184;9.850;2022-08-19T22:23:39;6.53;;;4.72;;
54545;SDS011;40444;45.184;9.850;2022-08-19T22:26:09;5.68;;;5.05;;
54545;SDS011;40444;45.184;9.850;2022-08-19T22:28:39;8.10;;;5.28;;
54545;SDS011;40444;45.184;9.850;2022-08-19T22:31:09;5.35;;;4.85;;
54545;SDS011;40444;45.184;9.850;2022-08-19T22:33:38;6.22;;;4.90;;
54545;SDS011;40444;45.184;9.850;2022-08-19T22:36:07;5.95;;;4.90;;
54545;SDS011;40444;45.184;9.850;2022-08-19T22:38:36;6.63;;;5.95;;
54545;SDS011;40444;45.184;9.850;2022-08-19T22:41:05;6.00;;;5.40;;
54545;SDS011;40444;45.184;9.850;2022-08-19T22:43:34;5.88;;;5.38;;
54545;SDS011;40444;45.184;9.850;2022-08-19T22:46:04;6.05;;;5.25;;
54545;SDS011;40444;45.184;9.850;2022-08-19T22:48:44;5.38;;;4.97;;
54545;SDS011;40444;45.184;9.850;2022-08-19T22:51:13;5.72;;;5.22;;
54545;SDS011;40444;45.184;9.850;2022-08-19T22:54:01;6.20;;;5.63;;
54545;SDS011;40444;45.184;9.850;2022-08-19T22:56:30;6.35;;;5.85;;
54545;SDS011;40444;45.184;9.850;2022-08-19T22:58:59;6.13;;;5.43;;
54545;SDS011;40444;45.184;9.850;2022-08-19T23:01:28;5.75;;;5.25;;
54545;SDS011;40444;45.184;9.850;2022-08-19T23:03:57;6.05;;;5.45;;
54545;SDS011;40444;45.184;9.850;2022-08-19T23:06:30;6.95;;;5.95;;
54545;SDS011;40444;45.184;9.850;2022-08-19T23:09:04;6.00;;;5.50;;
54545;SDS011;40444;45.184;9.850;2022-08-19T23:11:36;6.47;;;5.57;;
54545;SDS011;40444;45.184;9.850;2022-08-19T23:14:09;6.70;;;6.10;;
54545;SDS011;40444;45.184;9.850;2022-08-19T23:16:38;6.20;;;5.70;;
54545;SDS011;40444;45.184;9.850;2022-08-19T23:19:08;6.65;;;6.05;;
54545;SDS011;40444;45.184;9.850;2022-08-19T23:21:38;6.57;;;5.90;;
54545;SDS011;40444;45.184;9.850;2022-08-19T23:24:07;5.75;;;5.30;;
54545;SDS011;40444;45.184;9.850;2022-08-19T23:26:37;9.35;;;6.20;;
54545;SDS011;40444;45.184;9.850;2022-08-19T23:29:26;6.63;;;6.05;;
54545;SDS011;40444;45.184;9.850;2022-08-19T23:32:15;6.53;;;5.82;;
54545;SDS011;40444;45.184;9.850;2022-08-19T23:34:45;8.40;;;6.20;;
54545;SDS011;40444;45.184;9.850;2022-08-19T23:37:13;7.80;;;6.90;;
54545;SDS011;40444;45.184;9.850;2022-08-19T23:39:42;7.45;;;6.75;;
54545;SDS011;40444;45.184;9.850;2022-08-19T23:42:11;7.32;;;6.20;;
54545;SDS011;40444;45.184;9.850;2022-08-19T23:44:41;9.27;;;6.43;;
54545;SDS011;40444;45.184;9.850;2022-08-19T23:47:19;7.07;;;6.47;;
54545;SDS011;40444;45.184;9.850;2022-08-19T23:49:48;7.90;;;7.20;;
54545;SDS011;40444;45.184;9.850;2022-08-19T23:52:17;7.80;;;6.88;;
54545;SDS011;40444;45.184;9.850;2022-08-19T23:54:46;6.70;;;6.10;;
54545;SDS011;40444;45.184;9.850;2022-08-19T23:57:14;7.60;;;6.80;;
54545;SDS011;40444;45.184;9.850;2022-08-19T23:59:43;7.40;;;6.65;;
